Sousse, Tunisia
Current Conditions -  °F | °C
As of 7:00 AM on Saturday 29 Nov 2014 (Local Time) from DTMB Reporting Station
Scattered Clouds Scattered Clouds  
Wind Chill: 68°   Ceiling: Unl
Heat Index: 68°   Visibility: 6mi
Dew Point: 59°   Wind: 8mph
Humidity: 73%   Direction: 140°SE
Pressure: 29.8"   Gusts: NA
Location:  35.82°N, 10.63°E
Report Text: DTMB 290600Z 14007KT 9999 SCT026 20/15 Q1009 NOSIG
Loading
Personal Weather Stations






























Interactive Weather Map New forecast layout! Learn more

10-Day Weather Forecast

Advertisements
Track Severe Weather on mobile